createdAt,value
2023-03-05T00:00:58.416Z,1019.80
2023-03-05T00:01:59.085Z,1019.78
2023-03-05T00:02:59.767Z,1019.75
2023-03-05T00:04:00.436Z,1019.76
2023-03-05T00:05:01.018Z,1019.71
2023-03-05T00:06:01.617Z,1019.74
2023-03-05T00:07:02.207Z,1019.76
2023-03-05T00:08:02.803Z,1019.71
2023-03-05T00:09:03.462Z,1019.80
2023-03-05T00:10:04.126Z,1019.75
2023-03-05T00:11:04.724Z,1019.76
2023-03-05T00:12:05.320Z,1019.73
2023-03-05T00:13:05.967Z,1019.70
2023-03-05T00:14:06.675Z,1019.68
2023-03-05T00:15:07.282Z,1019.71
2023-03-05T00:16:07.923Z,1019.66
2023-03-05T00:17:08.560Z,1019.63
2023-03-05T00:18:09.229Z,1019.63
2023-03-05T00:19:09.836Z,1019.65
2023-03-05T00:20:10.443Z,1019.63
2023-03-05T00:21:11.037Z,1019.72
2023-03-05T00:22:11.637Z,1019.70
2023-03-05T00:23:12.246Z,1019.68
2023-03-05T00:24:12.938Z,1019.64
2023-03-05T00:25:13.527Z,1019.66
2023-03-05T00:26:14.131Z,1019.56
2023-03-05T00:27:14.849Z,1019.66
2023-03-05T00:28:15.529Z,1019.64
2023-03-05T00:29:16.127Z,1019.62
2023-03-05T00:31:17.568Z,1019.67
2023-03-05T00:32:18.430Z,1019.58
2023-03-05T00:33:19.085Z,1019.66
2023-03-05T00:34:19.771Z,1019.59
2023-03-05T00:35:20.428Z,1019.65
2023-03-05T00:36:21.165Z,1019.61
2023-03-05T00:37:21.747Z,1019.63
2023-03-05T00:38:22.355Z,1019.58
2023-03-05T00:39:22.964Z,1019.53
2023-03-05T00:40:23.582Z,1019.52
2023-03-05T00:41:24.177Z,1019.54
2023-03-05T00:42:24.819Z,1019.52
2023-03-05T00:43:25.419Z,1019.54
2023-03-05T00:44:26.087Z,1019.51
2023-03-05T00:45:26.691Z,1019.52
2023-03-05T00:46:27.424Z,1019.49
2023-03-05T00:47:27.939Z,1019.46
2023-03-05T00:48:28.548Z,1019.54
2023-03-05T00:49:29.148Z,1019.41
2023-03-05T00:50:29.771Z,1019.54
2023-03-05T00:51:30.355Z,1019.59
2023-03-05T00:52:30.958Z,1019.54
2023-03-05T00:53:31.560Z,1019.53
2023-03-05T00:54:32.164Z,1019.52
2023-03-05T00:55:32.765Z,1019.48
2023-03-05T00:56:33.370Z,1019.45
2023-03-05T00:57:33.981Z,1019.45
2023-03-05T00:58:34.582Z,1019.44
2023-03-05T00:59:35.182Z,1019.41
2023-03-05T01:00:35.780Z,1019.34
2023-03-05T01:01:36.433Z,1019.38
2023-03-05T01:02:37.066Z,1019.41
2023-03-05T01:03:37.712Z,1019.38
2023-03-05T01:04:38.418Z,1019.41
2023-03-05T01:05:39.071Z,1019.37
2023-03-05T01:06:39.683Z,1019.34
2023-03-05T01:07:40.290Z,1019.27
2023-03-05T01:08:40.901Z,1019.29
2023-03-05T01:09:41.493Z,1019.35
2023-03-05T01:10:42.098Z,1019.31
2023-03-05T01:11:42.895Z,1019.32
2023-03-05T01:12:43.497Z,1019.26
2023-03-05T01:13:44.102Z,1019.33
2023-03-05T01:14:44.762Z,1019.30
2023-03-05T01:15:45.431Z,1019.30
2023-03-05T01:16:46.058Z,1019.36
2023-03-05T01:17:46.654Z,1019.32
2023-03-05T01:18:47.258Z,1019.39
2023-03-05T01:19:47.909Z,1019.34
2023-03-05T01:20:48.510Z,1019.31
2023-03-05T01:21:49.113Z,1019.30
2023-03-05T01:22:49.720Z,1019.22
2023-03-05T01:23:50.322Z,1019.20
2023-03-05T01:24:50.918Z,1019.24
2023-03-05T01:25:51.519Z,1019.22
2023-03-05T01:26:52.127Z,1019.17
2023-03-05T01:27:52.738Z,1019.20
2023-03-05T01:28:53.327Z,1019.14
2023-03-05T01:29:53.933Z,1019.20
2023-03-05T01:30:54.529Z,1019.15
2023-03-05T01:31:55.187Z,1019.15
2023-03-05T01:32:55.776Z,1019.15
2023-03-05T01:33:56.483Z,1019.07
2023-03-05T01:34:57.096Z,1019.07
2023-03-05T01:35:57.720Z,1019.04
2023-03-05T01:36:58.330Z,1019.07
2023-03-05T01:37:58.925Z,1019.00
2023-03-05T01:38:59.530Z,1019.05
2023-03-05T01:40:00.982Z,1019.09
2023-03-05T01:41:01.575Z,1019.07
2023-03-05T01:42:02.239Z,1019.05
2023-03-05T01:43:02.843Z,1018.96
2023-03-05T01:44:03.507Z,1018.95
2023-03-05T01:45:04.146Z,1018.88
2023-03-05T01:46:04.803Z,1018.97
2023-03-05T01:47:05.392Z,1018.89
2023-03-05T01:48:06.043Z,1018.91
2023-03-05T01:49:06.642Z,1018.91
2023-03-05T01:50:07.260Z,1018.86
2023-03-05T01:51:07.855Z,1018.85
2023-03-05T01:52:08.454Z,1018.87
2023-03-05T01:53:09.060Z,1018.75
2023-03-05T01:54:09.656Z,1018.75
2023-03-05T01:55:10.262Z,1018.73
2023-03-05T01:56:10.869Z,1018.75
2023-03-05T01:57:11.549Z,1018.68
2023-03-05T01:58:12.146Z,1018.67
2023-03-05T01:59:12.754Z,1018.69
2023-03-05T02:00:13.362Z,1018.64
2023-03-05T02:01:14.027Z,1018.55
2023-03-05T02:02:14.653Z,1018.62
2023-03-05T02:03:15.252Z,1018.60
2023-03-05T02:04:15.847Z,1018.49
2023-03-05T02:05:16.450Z,1018.56
2023-03-05T02:06:17.047Z,1018.57
2023-03-05T02:07:17.642Z,1018.56
2023-03-05T02:08:18.251Z,1018.47
2023-03-05T02:09:18.849Z,1018.45
2023-03-05T02:10:19.446Z,1018.44
2023-03-05T02:11:20.044Z,1018.43
2023-03-05T02:12:20.650Z,1018.35
2023-03-05T02:13:21.255Z,1018.40
2023-03-05T02:14:21.864Z,1018.35
2023-03-05T02:15:22.454Z,1018.35
2023-03-05T02:16:23.070Z,1018.34
2023-03-05T02:17:23.696Z,1018.26
2023-03-05T02:18:24.302Z,1018.24
2023-03-05T02:19:24.893Z,1018.29
2023-03-05T02:20:26.567Z,1018.20
2023-03-05T02:21:27.167Z,1018.16
2023-03-05T02:22:40.378Z,1018.20
2023-03-05T02:23:40.974Z,1018.20
2023-03-05T02:25:34.192Z,1018.15
2023-03-05T02:26:34.988Z,1018.11
2023-03-05T02:27:35.582Z,1018.14
2023-03-05T02:28:36.186Z,1018.17
2023-03-05T02:29:36.801Z,1018.12
2023-03-05T02:30:37.458Z,1018.12
2023-03-05T02:31:38.079Z,1018.05
2023-03-05T02:32:39.520Z,1018.15
2023-03-05T02:33:40.115Z,1018.08
2023-03-05T02:34:40.707Z,1018.16
2023-03-05T02:35:41.365Z,1018.16
2023-03-05T02:36:41.955Z,1018.17
2023-03-05T02:37:42.624Z,1018.12
2023-03-05T02:38:43.236Z,1018.15
2023-03-05T02:39:44.709Z,1018.15
2023-03-05T02:40:46.155Z,1018.14
2023-03-05T02:41:46.759Z,1018.16
2023-03-05T02:42:47.415Z,1018.17
2023-03-05T02:43:48.024Z,1018.13
2023-03-05T02:44:48.632Z,1018.03
2023-03-05T02:45:49.298Z,1018.08
2023-03-05T02:46:49.915Z,1018.05
2023-03-05T02:47:50.523Z,1018.04
2023-03-05T02:48:51.199Z,1018.05
2023-03-05T02:49:51.787Z,1018.00
2023-03-05T02:50:52.386Z,1017.94
2023-03-05T02:51:52.991Z,1017.95
2023-03-05T02:52:53.599Z,1017.94
2023-03-05T02:53:54.201Z,1017.93
2023-03-05T02:54:54.898Z,1017.91
2023-03-05T02:55:55.491Z,1017.85
2023-03-05T02:56:56.103Z,1017.81
2023-03-05T02:57:56.817Z,1017.85
2023-03-05T02:58:57.424Z,1017.83
2023-03-05T02:59:58.115Z,1017.87
2023-03-05T03:00:58.749Z,1017.84
2023-03-05T03:01:59.349Z,1017.86
2023-03-05T03:02:59.966Z,1017.84
2023-03-05T03:04:00.596Z,1017.84
2023-03-05T03:05:01.177Z,1017.83
2023-03-05T03:06:01.773Z,1017.85
2023-03-05T03:07:02.521Z,1017.83
2023-03-05T03:08:03.126Z,1017.83
2023-03-05T03:09:03.733Z,1017.78
2023-03-05T03:10:04.343Z,1017.69
2023-03-05T03:11:04.940Z,1017.73
2023-03-05T03:12:05.544Z,1017.63
2023-03-05T03:13:06.152Z,1017.62
2023-03-05T03:14:06.765Z,1017.62
2023-03-05T03:15:07.350Z,1017.58
2023-03-05T03:16:07.956Z,1017.54
2023-03-05T03:17:08.614Z,1017.43
2023-03-05T03:18:09.233Z,1017.42
2023-03-05T03:19:09.831Z,1017.39
2023-03-05T03:20:10.445Z,1017.43
2023-03-05T03:21:11.048Z,1017.52
2023-03-05T03:22:11.641Z,1017.35
2023-03-05T03:23:12.246Z,1017.32
2023-03-05T03:24:12.849Z,1017.29
2023-03-05T03:25:13.458Z,1017.35
2023-03-05T03:26:14.055Z,1017.27
2023-03-05T03:27:14.651Z,1017.25
2023-03-05T03:28:15.260Z,1017.28
2023-03-05T03:29:15.938Z,1017.19
2023-03-05T03:30:16.532Z,1017.20
2023-03-05T03:31:17.247Z,1017.13
2023-03-05T03:32:17.961Z,1017.13
2023-03-05T03:33:18.561Z,1017.06
2023-03-05T03:34:19.167Z,1017.08
2023-03-05T03:35:19.793Z,1017.10
2023-03-05T03:36:20.393Z,1017.14
2023-03-05T03:37:20.989Z,1017.09
2023-03-05T03:38:21.587Z,1017.11
2023-03-05T03:39:22.192Z,1017.10
2023-03-05T03:40:22.788Z,1017.00
2023-03-05T03:41:23.461Z,1017.04
2023-03-05T03:42:24.143Z,1017.04
2023-03-05T03:43:24.744Z,1016.97
2023-03-05T03:44:25.351Z,1016.95
2023-03-05T03:45:25.988Z,1016.92
2023-03-05T03:46:26.657Z,1017.00
2023-03-05T03:47:27.254Z,1016.97
2023-03-05T03:48:27.848Z,1017.04
2023-03-05T03:49:28.561Z,1017.01
2023-03-05T03:50:29.157Z,1017.04
2023-03-05T03:51:29.758Z,1017.00
2023-03-05T03:52:30.371Z,1016.94
2023-03-05T03:53:30.964Z,1016.98
2023-03-05T03:54:31.558Z,1017.05
2023-03-05T03:55:32.152Z,1016.93
2023-03-05T03:56:32.747Z,1016.91
2023-03-05T03:57:33.399Z,1016.85
2023-03-05T03:58:33.995Z,1016.90
2023-03-05T03:59:34.603Z,1016.87
2023-03-05T04:00:35.202Z,1016.87
2023-03-05T04:01:35.859Z,1016.94
2023-03-05T04:02:36.557Z,1016.87
2023-03-05T04:03:37.182Z,1016.82
2023-03-05T04:04:37.811Z,1016.89
2023-03-05T04:05:38.554Z,1016.82
2023-03-05T04:06:39.154Z,1016.79
2023-03-05T04:07:39.813Z,1016.83
2023-03-05T04:08:40.408Z,1016.97
2023-03-05T04:09:41.017Z,1016.88
2023-03-05T04:10:41.616Z,1016.87
2023-03-05T04:11:42.220Z,1016.86
2023-03-05T04:12:42.825Z,1016.88
2023-03-05T04:13:43.472Z,1016.95
2023-03-05T04:14:44.073Z,1016.93
2023-03-05T04:15:44.697Z,1016.95
2023-03-05T04:16:45.362Z,1016.83
2023-03-05T04:17:45.956Z,1016.90
2023-03-05T04:18:46.631Z,1016.88
2023-03-05T04:19:47.231Z,1016.89
2023-03-05T04:20:47.842Z,1016.92
2023-03-05T04:21:48.440Z,1016.92
2023-03-05T04:22:49.031Z,1016.88
2023-03-05T04:23:49.624Z,1016.89
2023-03-05T04:24:50.221Z,1016.89
2023-03-05T04:25:50.827Z,1016.83
2023-03-05T04:26:51.436Z,1016.85
2023-03-05T04:27:52.019Z,1016.91
2023-03-05T04:28:52.623Z,1016.93
2023-03-05T04:29:53.218Z,1016.90
2023-03-05T04:30:53.833Z,1016.97
2023-03-05T04:31:54.425Z,1016.91
2023-03-05T04:32:55.032Z,1016.88
2023-03-05T04:33:55.623Z,1016.95
2023-03-05T04:34:56.240Z,1016.97
2023-03-05T04:35:56.885Z,1016.94
2023-03-05T04:36:57.527Z,1016.95
2023-03-05T04:37:58.132Z,1016.94
2023-03-05T04:38:58.736Z,1016.96
2023-03-05T04:39:59.346Z,1016.93
2023-03-05T04:40:59.938Z,1016.93
2023-03-05T04:42:00.552Z,1016.93
2023-03-05T04:43:01.940Z,1017.01
2023-03-05T04:44:03.386Z,1016.89
2023-03-05T04:45:04.051Z,1016.94
2023-03-05T04:46:04.837Z,1016.91
2023-03-05T04:47:05.369Z,1016.88
2023-03-05T04:48:05.973Z,1016.93
2023-03-05T04:49:06.583Z,1016.94
2023-03-05T04:50:07.189Z,1016.88
2023-03-05T04:51:07.791Z,1016.79
2023-03-05T04:52:08.387Z,1016.78
2023-03-05T04:53:08.994Z,1016.70
2023-03-05T04:54:09.594Z,1016.76
2023-03-05T04:55:10.198Z,1016.72
2023-03-05T04:56:10.808Z,1016.71
2023-03-05T04:57:11.437Z,1016.69
2023-03-05T04:58:12.032Z,1016.71
2023-03-05T04:59:12.635Z,1016.73
2023-03-05T05:00:13.240Z,1016.80
2023-03-05T05:01:13.832Z,1016.84
2023-03-05T05:02:15.282Z,1016.85
2023-03-05T05:03:15.967Z,1016.77
2023-03-05T05:04:16.641Z,1016.80
2023-03-05T05:05:17.240Z,1016.88
2023-03-05T05:06:17.850Z,1016.80
2023-03-05T05:07:18.447Z,1016.86
2023-03-05T05:08:19.050Z,1016.83
2023-03-05T05:09:19.650Z,1016.83
2023-03-05T05:10:20.248Z,1016.84
2023-03-05T05:11:20.844Z,1016.79
2023-03-05T05:12:21.442Z,1016.81
2023-03-05T05:13:22.036Z,1016.82
2023-03-05T05:14:22.633Z,1016.70
2023-03-05T05:15:23.282Z,1016.67
2023-03-05T05:16:23.920Z,1016.74
2023-03-05T05:17:24.578Z,1016.72
2023-03-05T05:18:25.188Z,1016.65
2023-03-05T05:19:25.904Z,1016.66
2023-03-05T05:20:26.493Z,1016.75
2023-03-05T05:21:27.091Z,1016.69
2023-03-05T05:22:27.688Z,1016.71
2023-03-05T05:23:28.285Z,1016.70
2023-03-05T05:24:28.885Z,1016.70
2023-03-05T05:25:29.487Z,1016.79
2023-03-05T05:26:30.085Z,1016.79
2023-03-05T05:27:30.680Z,1016.89
2023-03-05T05:28:31.278Z,1016.90
2023-03-05T05:29:31.877Z,1016.89
2023-03-05T05:30:32.472Z,1016.85
2023-03-05T05:31:33.078Z,1016.89
2023-03-05T05:32:33.738Z,1016.95
2023-03-05T05:33:34.337Z,1017.01
2023-03-05T05:34:34.955Z,1017.06
2023-03-05T05:35:35.611Z,1017.08
2023-03-05T05:36:36.217Z,1016.98
2023-03-05T05:37:36.831Z,1016.99
2023-03-05T05:38:37.478Z,1017.08
2023-03-05T05:39:38.080Z,1017.03
2023-03-05T05:40:38.698Z,1017.05
2023-03-05T05:41:39.284Z,1017.05
2023-03-05T05:42:39.882Z,1017.05
2023-03-05T05:43:40.477Z,1017.09
2023-03-05T05:44:41.074Z,1017.07
2023-03-05T05:45:41.840Z,1017.07
2023-03-05T05:46:42.561Z,1017.04
2023-03-05T05:47:43.147Z,1017.05
2023-03-05T05:48:43.754Z,1017.08
2023-03-05T05:49:44.357Z,1017.05
2023-03-05T05:50:44.953Z,1017.04
2023-03-05T05:51:45.559Z,1017.04
2023-03-05T05:52:46.198Z,1016.99
2023-03-05T05:53:46.791Z,1017.00
2023-03-05T05:54:47.450Z,1016.94
2023-03-05T05:55:48.048Z,1016.90
2023-03-05T05:56:48.646Z,1016.97
2023-03-05T05:57:49.261Z,1016.88
2023-03-05T05:58:49.918Z,1016.87
2023-03-05T05:59:50.511Z,1016.99
2023-03-05T06:00:51.108Z,1016.90
2023-03-05T06:01:51.789Z,1016.87
2023-03-05T06:02:53.277Z,1016.91
2023-03-05T06:03:53.912Z,1016.91
2023-03-05T06:04:55.784Z,1016.85
2023-03-05T06:05:55.222Z,1016.91
2023-03-05T06:06:55.823Z,1016.86
2023-03-05T06:07:56.484Z,1016.93
2023-03-05T06:08:57.083Z,1016.94
2023-03-05T06:09:57.684Z,1016.94
2023-03-05T06:10:58.296Z,1016.87
2023-03-05T06:11:58.884Z,1016.91
2023-03-05T06:12:59.480Z,1016.86
2023-03-05T06:14:00.136Z,1016.82
2023-03-05T06:15:00.718Z,1016.82
2023-03-05T06:16:01.417Z,1016.86
2023-03-05T06:17:02.018Z,1016.82
2023-03-05T06:18:02.611Z,1016.90
2023-03-05T06:19:04.311Z,1016.89
2023-03-05T06:20:04.870Z,1016.86
2023-03-05T06:21:05.457Z,1016.84
2023-03-05T06:22:06.059Z,1016.90
2023-03-05T06:23:06.655Z,1016.84
2023-03-05T06:24:07.273Z,1016.90
2023-03-05T06:25:07.937Z,1016.87
2023-03-05T06:26:08.607Z,1016.83
2023-03-05T06:27:09.216Z,1016.93
2023-03-05T06:28:09.804Z,1016.79
2023-03-05T06:29:10.411Z,1016.83
2023-03-05T06:30:11.006Z,1016.76
2023-03-05T06:31:11.767Z,1016.82
2023-03-05T06:32:12.501Z,1016.86
2023-03-05T06:33:13.154Z,1016.88
2023-03-05T06:34:13.807Z,1016.89
2023-03-05T06:35:14.406Z,1016.91
2023-03-05T06:36:15.001Z,1016.92
2023-03-05T06:37:15.603Z,1016.94
2023-03-05T06:38:16.195Z,1016.93
2023-03-05T06:39:16.789Z,1016.82
2023-03-05T06:40:17.388Z,1016.87
2023-03-05T06:41:18.043Z,1016.93
2023-03-05T06:42:18.636Z,1016.98
2023-03-05T06:43:19.239Z,1016.81
2023-03-05T06:44:19.842Z,1016.97
2023-03-05T06:45:20.445Z,1016.92
2023-03-05T06:46:21.147Z,1016.93
2023-03-05T06:47:21.750Z,1016.92
2023-03-05T06:48:22.351Z,1016.91
2023-03-05T06:49:22.949Z,1016.88
2023-03-05T06:50:23.544Z,1016.90
2023-03-05T06:51:24.142Z,1017.00
2023-03-05T06:52:24.744Z,1016.96
2023-03-05T06:53:25.339Z,1017.05
2023-03-05T06:54:25.935Z,1017.06
2023-03-05T06:55:26.533Z,1017.08
2023-03-05T06:56:27.173Z,1017.06
2023-03-05T06:57:28.624Z,1017.06
2023-03-05T06:58:29.219Z,1017.03
2023-03-05T06:59:29.814Z,1017.11
2023-03-05T07:00:30.466Z,1017.18
2023-03-05T07:01:31.117Z,1017.11
2023-03-05T07:02:31.885Z,1017.15
2023-03-05T07:03:32.490Z,1017.18
2023-03-05T07:04:33.095Z,1017.22
2023-03-05T07:05:34.302Z,1017.17
2023-03-05T07:06:34.438Z,1017.19
2023-03-05T07:07:35.033Z,1017.10
2023-03-05T07:08:35.630Z,1017.13
2023-03-05T07:09:36.234Z,1017.28
2023-03-05T07:10:36.827Z,1017.24
2023-03-05T07:11:37.431Z,1017.24
2023-03-05T07:12:38.029Z,1017.17
2023-03-05T07:13:38.632Z,1017.15
2023-03-05T07:14:39.252Z,1017.22
2023-03-05T07:15:39.913Z,1017.14
2023-03-05T07:16:40.561Z,1017.20
2023-03-05T07:17:41.224Z,1017.18
2023-03-05T07:18:41.832Z,1017.21
2023-03-05T07:19:42.424Z,1017.12
2023-03-05T07:20:43.028Z,1017.20
2023-03-05T07:21:43.627Z,1017.14
2023-03-05T07:22:44.227Z,1017.19
2023-03-05T07:23:44.846Z,1017.19
2023-03-05T07:24:45.434Z,1017.11
2023-03-05T07:25:46.040Z,1017.08
2023-03-05T07:26:48.871Z,1017.12
2023-03-05T07:27:48.219Z,1017.13
2023-03-05T07:28:48.893Z,1017.10
2023-03-05T07:29:49.483Z,1017.17
2023-03-05T07:30:50.141Z,1017.01
2023-03-05T07:31:50.731Z,1017.08
2023-03-05T07:32:51.330Z,1017.09
2023-03-05T07:33:51.993Z,1017.08
2023-03-05T07:34:52.701Z,1017.03
2023-03-05T07:35:53.417Z,1017.10
2023-03-05T07:36:54.069Z,1016.95
2023-03-05T07:37:54.691Z,1017.06
2023-03-05T07:38:55.334Z,1017.01
2023-03-05T07:39:55.937Z,1016.95
2023-03-05T07:40:56.533Z,1016.95
2023-03-05T07:41:57.187Z,1016.91
2023-03-05T07:42:57.797Z,1017.00
2023-03-05T07:43:58.399Z,1016.94
2023-03-05T07:44:59.052Z,1016.96
2023-03-05T07:45:59.678Z,1016.98
2023-03-05T07:47:00.267Z,1016.91
2023-03-05T07:48:00.862Z,1016.93
2023-03-05T07:49:01.465Z,1016.97
2023-03-05T07:50:02.058Z,1016.97
2023-03-05T07:51:02.689Z,1016.94
2023-03-05T07:52:03.270Z,1017.02
2023-03-05T07:53:03.872Z,1016.97
2023-03-05T07:54:04.465Z,1017.09
2023-03-05T07:55:05.067Z,1017.00
2023-03-05T07:56:05.724Z,1017.01
2023-03-05T07:57:06.329Z,1016.92
2023-03-05T07:58:06.926Z,1016.97
2023-03-05T07:59:07.531Z,1016.93
2023-03-05T08:00:08.139Z,1016.92
2023-03-05T08:01:08.738Z,1017.00
2023-03-05T08:02:09.445Z,1016.93
2023-03-05T08:03:10.039Z,1016.98
2023-03-05T08:04:10.716Z,1016.98
2023-03-05T08:05:11.291Z,1017.06
2023-03-05T08:06:11.894Z,1016.89
2023-03-05T08:07:12.498Z,1016.92
2023-03-05T08:08:13.104Z,1016.96
2023-03-05T08:09:13.699Z,1016.91
2023-03-05T08:10:14.312Z,1016.92
2023-03-05T08:11:14.998Z,1016.88
2023-03-05T08:12:15.585Z,1016.86
2023-03-05T08:13:16.205Z,1016.88
2023-03-05T08:14:16.809Z,1016.88
2023-03-05T08:15:17.411Z,1016.90
2023-03-05T08:16:18.042Z,1016.86
2023-03-05T08:17:18.742Z,1016.88
2023-03-05T08:18:19.436Z,1016.82
2023-03-05T08:19:20.000Z,1016.78
2023-03-05T08:20:20.594Z,1016.73
2023-03-05T08:21:21.210Z,1016.71
2023-03-05T08:22:21.860Z,1016.69
2023-03-05T08:23:22.469Z,1016.80
2023-03-05T08:24:23.064Z,1016.70
2023-03-05T08:25:23.673Z,1016.63
2023-03-05T08:26:24.266Z,1016.69
2023-03-05T08:27:24.860Z,1016.65
2023-03-05T08:28:25.457Z,1016.63
2023-03-05T08:29:26.051Z,1016.59
2023-03-05T08:30:26.653Z,1016.49
2023-03-05T08:31:27.345Z,1016.57
2023-03-05T08:32:28.002Z,1016.62
2023-03-05T08:33:31.155Z,1016.53
2023-03-05T08:34:30.219Z,1016.52
2023-03-05T08:35:30.823Z,1016.52
2023-03-05T08:36:31.449Z,1016.55
2023-03-05T08:37:32.091Z,1016.51
2023-03-05T08:38:32.691Z,1016.53
2023-03-05T08:39:33.291Z,1016.49
2023-03-05T08:40:33.894Z,1016.53
2023-03-05T08:41:34.495Z,1016.48
2023-03-05T08:42:35.099Z,1016.54
2023-03-05T08:43:35.762Z,1016.53
2023-03-05T08:44:36.402Z,1016.48
2023-03-05T08:45:37.004Z,1016.51
2023-03-05T08:46:37.691Z,1016.47
2023-03-05T08:47:38.320Z,1016.46
2023-03-05T08:48:38.927Z,1016.49
2023-03-05T08:49:39.657Z,1016.50
2023-03-05T08:50:40.250Z,1016.50
2023-03-05T08:51:40.907Z,1016.49
2023-03-05T08:52:41.514Z,1016.54
2023-03-05T08:53:42.190Z,1016.52
2023-03-05T08:54:42.785Z,1016.52
2023-03-05T08:55:44.273Z,1016.64
2023-03-05T08:56:45.729Z,1016.53
2023-03-05T08:57:46.340Z,1016.57
2023-03-05T08:58:46.933Z,1016.56
2023-03-05T08:59:47.551Z,1016.54
2023-03-05T09:00:48.127Z,1016.57
2023-03-05T09:01:48.730Z,1016.55
2023-03-05T09:02:49.353Z,1016.53
2023-03-05T09:03:49.962Z,1016.58
2023-03-05T09:04:50.567Z,1016.61
2023-03-05T09:05:51.958Z,1016.50
2023-03-05T09:06:52.557Z,1016.57
2023-03-05T09:07:53.264Z,1016.54
2023-03-05T09:08:53.873Z,1016.49
2023-03-05T09:09:54.478Z,1016.51
2023-03-05T09:10:55.070Z,1016.58
2023-03-05T09:11:55.668Z,1016.54
2023-03-05T09:12:56.271Z,1016.61
2023-03-05T09:13:56.865Z,1016.58
2023-03-05T09:14:57.469Z,1016.67
2023-03-05T09:15:58.110Z,1016.58
2023-03-05T09:16:58.721Z,1016.60
2023-03-05T09:17:59.324Z,1016.60
2023-03-05T09:18:59.911Z,1016.64
2023-03-05T09:20:00.504Z,1016.68
2023-03-05T09:21:01.109Z,1016.60
2023-03-05T09:22:01.718Z,1016.68
2023-03-05T09:23:02.377Z,1016.63
2023-03-05T09:24:02.974Z,1016.59
2023-03-05T09:25:03.567Z,1016.62
2023-03-05T09:26:04.164Z,1016.62
2023-03-05T09:27:04.761Z,1016.64
2023-03-05T09:28:05.356Z,1016.67
2023-03-05T09:29:05.971Z,1016.60
2023-03-05T09:30:06.575Z,1016.60
2023-03-05T09:31:07.167Z,1016.57
2023-03-05T09:32:07.972Z,1016.59
2023-03-05T09:33:08.602Z,1016.64
2023-03-05T09:34:09.195Z,1016.64
2023-03-05T09:35:09.791Z,1016.66
2023-03-05T09:36:10.397Z,1016.68
2023-03-05T09:37:11.010Z,1016.72
2023-03-05T09:38:11.600Z,1016.68
2023-03-05T09:39:12.208Z,1016.66
2023-03-05T09:40:12.791Z,1016.64
2023-03-05T09:41:13.383Z,1016.63
2023-03-05T09:42:13.978Z,1016.60
2023-03-05T09:43:14.573Z,1016.61
2023-03-05T09:44:15.177Z,1016.63
2023-03-05T09:45:15.774Z,1016.63
2023-03-05T09:46:17.328Z,1016.61
2023-03-05T09:47:17.965Z,1016.63
2023-03-05T09:48:19.421Z,1016.61
2023-03-05T09:49:20.023Z,1016.68
2023-03-05T09:50:20.668Z,1016.75
2023-03-05T09:51:21.269Z,1016.75
2023-03-05T09:52:21.946Z,1016.76
2023-03-05T09:53:22.536Z,1016.66
2023-03-05T09:54:23.140Z,1016.69
2023-03-05T09:55:23.744Z,1016.80
2023-03-05T09:56:24.471Z,1016.77
2023-03-05T09:57:25.066Z,1016.79
2023-03-05T09:58:25.661Z,1016.79
2023-03-05T09:59:26.261Z,1016.83
2023-03-05T10:00:26.858Z,1016.79
2023-03-05T10:01:27.470Z,1016.76
2023-03-05T10:02:28.068Z,1016.86
2023-03-05T10:03:28.738Z,1016.76
2023-03-05T10:04:29.442Z,1016.72
2023-03-05T10:05:30.058Z,1016.82
2023-03-05T10:06:30.648Z,1016.74
2023-03-05T10:07:31.267Z,1016.76
2023-03-05T10:08:31.860Z,1016.76
2023-03-05T10:09:32.466Z,1016.73
2023-03-05T10:10:33.064Z,1016.63
2023-03-05T10:11:33.668Z,1016.70
2023-03-05T10:12:34.271Z,1016.64
2023-03-05T10:13:34.863Z,1016.66
2023-03-05T10:14:35.475Z,1016.59
2023-03-05T10:15:36.999Z,1016.63
2023-03-05T10:16:37.667Z,1016.63
2023-03-05T10:17:38.266Z,1016.57
2023-03-05T10:18:38.870Z,1016.62
2023-03-05T10:19:39.531Z,1016.58
2023-03-05T10:20:40.134Z,1016.63
2023-03-05T10:21:40.787Z,1016.55
2023-03-05T10:22:41.385Z,1016.63
2023-03-05T10:23:42.048Z,1016.53
2023-03-05T10:24:42.652Z,1016.56
2023-03-05T10:25:43.249Z,1016.56
2023-03-05T10:26:43.846Z,1016.63
2023-03-05T10:27:44.454Z,1016.61
2023-03-05T10:28:45.046Z,1016.58
2023-03-05T10:29:45.653Z,1016.51
2023-03-05T10:30:46.255Z,1016.58
2023-03-05T10:31:46.870Z,1016.59
2023-03-05T10:32:47.493Z,1016.49
2023-03-05T10:33:48.134Z,1016.49
2023-03-05T10:34:48.732Z,1016.44
2023-03-05T10:35:49.353Z,1016.52
2023-03-05T10:36:49.935Z,1016.42
2023-03-05T10:37:50.613Z,1016.49
2023-03-05T10:38:51.221Z,1016.44
2023-03-05T10:39:51.884Z,1016.42
2023-03-05T10:40:52.486Z,1016.45
2023-03-05T10:41:53.072Z,1016.40
2023-03-05T10:42:53.675Z,1016.39
2023-03-05T10:43:54.272Z,1016.42
2023-03-05T10:44:54.866Z,1016.36
2023-03-05T10:45:55.548Z,1016.39
2023-03-05T10:46:56.213Z,1016.41
2023-03-05T10:47:56.806Z,1016.41
2023-03-05T10:48:57.420Z,1016.43
2023-03-05T10:49:58.056Z,1016.39
2023-03-05T10:50:58.660Z,1016.46
2023-03-05T10:51:59.247Z,1016.39
2023-03-05T10:52:59.910Z,1016.37
2023-03-05T10:54:00.497Z,1016.42
2023-03-05T10:55:01.108Z,1016.36
2023-03-05T10:56:01.696Z,1016.37
2023-03-05T10:57:02.290Z,1016.43
2023-03-05T10:58:02.894Z,1016.35
2023-03-05T10:59:03.491Z,1016.31
2023-03-05T11:00:04.092Z,1016.41
2023-03-05T11:01:04.731Z,1016.41
2023-03-05T11:02:05.407Z,1016.30
2023-03-05T11:03:06.065Z,1016.38
2023-03-05T11:04:06.659Z,1016.31
2023-03-05T11:05:07.322Z,1016.30
2023-03-05T11:06:07.916Z,1016.29
2023-03-05T11:07:08.521Z,1016.23
2023-03-05T11:08:09.246Z,1016.23
2023-03-05T11:09:09.842Z,1016.22
2023-03-05T11:10:10.439Z,1016.22
2023-03-05T11:11:11.039Z,1016.25
2023-03-05T11:12:11.699Z,1016.24
2023-03-05T11:13:12.410Z,1016.26
2023-03-05T11:14:13.035Z,1016.24
2023-03-05T11:15:13.634Z,1016.18
2023-03-05T11:16:14.254Z,1016.20
2023-03-05T11:17:14.856Z,1016.19
2023-03-05T11:18:15.455Z,1016.14
2023-03-05T11:19:16.062Z,1016.13
2023-03-05T11:20:16.653Z,1016.08
2023-03-05T11:21:17.250Z,1016.14
2023-03-05T11:22:17.861Z,1016.04
2023-03-05T11:23:18.453Z,1016.10
2023-03-05T11:24:19.068Z,1016.04
2023-03-05T11:25:20.513Z,1016.00
2023-03-05T11:26:21.116Z,1016.07
2023-03-05T11:27:21.709Z,1016.06
2023-03-05T11:28:32.404Z,1016.12
2023-03-05T11:29:24.761Z,1016.11
2023-03-05T11:30:25.365Z,1016.08
2023-03-05T11:31:26.134Z,1016.05
2023-03-05T11:32:26.807Z,1016.11
2023-03-05T11:33:27.431Z,1016.06
2023-03-05T11:34:28.033Z,1016.05
2023-03-05T11:35:28.734Z,1016.10
2023-03-05T11:36:29.326Z,1015.98
2023-03-05T11:37:29.921Z,1016.04
2023-03-05T11:38:30.525Z,1016.02
2023-03-05T11:39:31.127Z,1016.04
2023-03-05T11:40:31.730Z,1016.03
2023-03-05T11:41:32.407Z,1015.99
2023-03-05T11:42:33.039Z,1016.05
2023-03-05T11:43:33.664Z,1016.01
2023-03-05T11:44:34.305Z,1016.04
2023-03-05T11:45:34.909Z,1016.05
2023-03-05T11:46:35.664Z,1016.05
2023-03-05T11:47:36.283Z,1016.05
2023-03-05T11:48:36.893Z,1015.99
2023-03-05T11:49:37.484Z,1015.99
2023-03-05T11:50:38.081Z,1016.01
2023-03-05T11:51:38.686Z,1015.97
2023-03-05T11:52:39.338Z,1015.89
2023-03-05T11:53:39.942Z,1015.95
2023-03-05T11:54:40.539Z,1015.98
2023-03-05T11:55:41.195Z,1015.99
2023-03-05T11:56:41.871Z,1015.94
2023-03-05T11:57:42.476Z,1015.96
2023-03-05T11:58:43.077Z,1015.93
2023-03-05T11:59:44.595Z,1015.96
2023-03-05T12:00:45.185Z,1015.91
2023-03-05T12:01:45.791Z,1015.89
2023-03-05T12:02:46.418Z,1015.90
2023-03-05T12:03:47.117Z,1015.86
2023-03-05T12:04:47.791Z,1015.84
2023-03-05T12:05:48.383Z,1015.88
2023-03-05T12:06:48.988Z,1015.87
2023-03-05T12:07:49.584Z,1015.91
2023-03-05T12:08:50.187Z,1015.84
2023-03-05T12:09:50.827Z,1015.82
2023-03-05T12:10:51.457Z,1015.77
2023-03-05T12:11:52.209Z,1015.84
2023-03-05T12:12:52.815Z,1015.81
2023-03-05T12:13:53.491Z,1015.83
2023-03-05T12:14:54.089Z,1015.77
2023-03-05T12:15:54.700Z,1015.67